Aviation Digital Data Service (ADDS)

Output produced by METARs form (1750 UTC 21 October 2017)
found at http://www.aviationweather.gov/adds/metars/
 
KBFD 211653Z AUTO 20004KT 10SM CLR 21/03 A3033 RMK AO2 SLP270 T02060028
KBFD 211553Z AUTO 18005KT 10SM CLR 20/03 A3035 RMK AO2 SLP275 T02000028
KBFD 211453Z AUTO 21004KT 10SM CLR 18/03 A3035 RMK AO2 SLP279 T01830033 51011
KBFD 211353Z AUTO 12003KT 10SM CLR 14/05 A3035 RMK AO2 SLP279 T01440050
KBFD 211253Z AUTO 12003KT 10SM CLR 06/04 A3034 RMK AO2 SLP280 T00610039
KBFD 211153Z AUTO 00000KT 6SM BR CLR 02/01 A3032 RMK AO2 SLP276 T00220011 10056 20006 51010
KBFD 211053Z AUTO 00000KT 10SM CLR 01/01 A3031 RMK AO2 SLP271 T00110006
KBFD 210953Z AUTO 13004KT 10SM CLR 02/02 A3030 RMK AO2 SLP262 T00220017
KBFD 210853Z AUTO 00000KT 10SM CLR 05/02 A3029 RMK AO2 SLP255 T00500017 53002
KBFD 210753Z AUTO 00000KT 10SM CLR 03/02 A3028 RMK AO2 SLP252 T00330017
KBFD 210653Z AUTO 11003KT 10SM CLR 03/02 A3028 RMK AO2 SLP255 T00280017
KBFD 210553Z AUTO 00000KT 10SM CLR 04/02 A3028 RMK AO2 SLP253 T00440022 10106 20039 51006
KBFD 210453Z AUTO 00000KT 10SM CLR 04/02 A3028 RMK AO2 SLP254 T00440022 402170039
KBFD 210353Z AUTO 00000KT 10SM CLR 05/03 A3027 RMK AO2 SLP252 T00500028
KBFD 210253Z AUTO 00000KT 10SM CLR 06/03 A3026 RMK AO2 SLP251 T00560028 53007
KBFD 210153Z AUTO 00000KT 10SM CLR 07/03 A3025 RMK AO2 SLP247 T00720028
KBFD 210053Z AUTO 00000KT 10SM CLR 09/03 A3024 RMK AO2 SLP244 T00890033
KBFD 202353Z AUTO 00000KT 10SM CLR 11/04 A3024 RMK AO2 SLP248 T01060039 10217 20106 53000
KBFD 202253Z AUTO 00000KT 10SM CLR 14/02 A3024 RMK AO2 SLP243 T01440022
KBFD 202153Z AUTO 28004KT 10SM CLR 18/01 A3024 RMK AO2 SLP240 T01830006
KBFD 202053Z AUTO 32003KT 10SM CLR 21/01 A3024 RMK AO2 SLP239 T02060011 55007
KBFD 201953Z AUTO 35006KT 10SM CLR 21/M01 A3024 RMK AO2 SLP236 T02111006
KBFD 201853Z AUTO 31003KT 10SM CLR 21/M02 A3025 RMK AO2 SLP240 T02061017
KBFD 201753Z AUTO VRB04KT 10SM CLR 19/M03 A3027 RMK AO2 SLP245 T01941028 10194 20050 58010 $
KBFD 201653Z AUTO 01004KT 10SM CLR 18/M02 A3028 RMK AO2 SLP251 T01831022 $
KBFD 201553Z AUTO 01007KT 10SM CLR 17/M02 A3029 RMK AO2 SLP255 T01671022 $
KBFD 201453Z AUTO 35008KT 10SM CLR 14/02 A3030 RMK AO2 SLP256 T01440017 51014 $
KBFD 201353Z AUTO 34008KT 10SM CLR 13/04 A3029 RMK AO2 SLP256 T01280044
KBFD 201253Z AUTO 31003KT 10SM CLR 09/08 A3028 RMK AO2 SLP254 T00940078
KBFD 201153Z AUTO 32005KT 4SM BR CLR 05/05 A3026 RMK AO2 SLP247 T00500050 10089 20039 53018
KBFD 201053Z AUTO 27003KT 7SM CLR 07/06 A3024 RMK AO2 SLP239 T00670061 $
KBFD 201031Z AUTO 28003KT 4SM BR SCT002 07/07 A3023 RMK AO2 T00670067 $
KBFD 201024Z AUTO 28003KT 1 3/4SM BR SCT002 07/07 A3023 RMK AO2 T00670067 $
KBFD 201022Z AUTO 00000KT 3/4SM BR VV002 07/07 A3023 RMK AO2 T00670067 $
KBFD 201012Z AUTO 00000KT 1/4SM FG VV002 06/06 A3022 RMK AO2 T00610061 $
KBFD 201001Z AUTO 00000KT 3/4SM BR VV002 06/05 A3022 RMK AO2 T00560050 $
KBFD 200953Z AUTO 00000KT 2SM BR OVC002 04/04 A3022 RMK AO2 SLP233 T00440044 $
KBFD 200921Z AUTO 00000KT 3/4SM BR VV002 05/05 A3021 RMK AO2 T00500050 $
KBFD 200907Z AUTO 00000KT 1 3/4SM BR SCT002 05/04 A3020 RMK AO2 VIS 3/4V5 T00500044 $
KBFD 200853Z AUTO 00000KT 1SM BR VV002 05/05 A3020 RMK AO2 SLP225 T00500050 53009 $
KBFD 200834Z AUTO 13003KT 1 3/4SM BR BKN003 04/04 A3019 RMK AO2 T00440044 $
KBFD 200825Z AUTO 14004KT 2SM BR FEW003 04/04 A3019 RMK AO2 T00440044 $
KBFD 200807Z AUTO 00000KT 1 3/4SM BR CLR 06/06 A3018 RMK AO2 T00560056 $
KBFD 200753Z AUTO 00000KT 8SM CLR 06/06 A3018 RMK AO2 SLP217 T00610056 $
KBFD 200653Z AUTO 00000KT 8SM CLR 07/07 A3017 RMK AO2 SLP215 T00720067 $
KBFD 200553Z AUTO 00000KT 10SM CLR 08/08 A3017 RMK AO2 SLP212 T00830078 10156 20083 53004